Jill Reinauer — WCW9655 — position and weather

sailwx.info

Track history (hours):
 
Tides and Currents Weather Stations Pressure Air Temp Water Temp Dewpoint Dewpoint Depression Visibility Wind Speed Wind Dir Waves Ship Positions

Jill Reinauer

Owner: REINAUER TRANSPORTATION CO.,LLC., STATEN ISLAND, NY. More information available from US FCC via Universal Licensing System and Coast Guard Vessel Documentation Center.

Last reported at 2018-Jan-21 06:58 UTC. Time now 2018-Jan-21 07:06 UTC.
Position N 40°35' W 074°12'.

Length 30 m; draft 4 m.

Type: . MMSI: 366727190.

Date/timePositionNaut miles runAvg speedWind from/ knotsBaromVisibWave heightAir tempDewpointWater temp
2018-Jan-21 06:58N 40°35' W 074°12'0 0.7
2018-Jan-21 06:24N 40°35' W 074°13'2 4.9
2018-Jan-21 05:58N 40°33' W 074°14'1 2.9
2018-Jan-21 05:30N 40°32' W 074°15'0 0.0
2018-Jan-21 05:00N 40°32' W 074°15'0 0.0
2018-Jan-21 04:29N 40°32' W 074°15'0 0.0
2018-Jan-21 04:00N 40°32' W 074°15'1 1.3
2018-Jan-21 03:10N 40°31' W 074°15'1 0.6
2018-Jan-21 01:37N 40°32' W 074°15'1 0.6
2018-Jan-20 23:04N 40°33' W 074°14'1 7.7
2018-Jan-20 22:59N 40°33' W 074°13'4 7.7
2018-Jan-20 22:29N 40°37' W 074°12'3 6.6
2018-Jan-20 22:00N 40°39' W 074°08'3 6.3
2018-Jan-20 21:30N 40°39' W 074°04'3 6.6
2018-Jan-20 21:00N 40°42' W 074°02'510.2
2018-Jan-20 20:30N 40°47' W 073°60'3 5.3
2018-Jan-20 20:01N 40°49' W 073°58'4 7.4
2018-Jan-20 19:30N 40°52' W 073°56'4 8.5
2018-Jan-20 19:00N 40°56' W 073°54'1 0.0
2018-Jan-19 12:00N 40°57' W 073°54'3 5.6
2018-Jan-19 11:30N 40°55' W 073°55'3 5.0
2018-Jan-19 11:00N 40°52' W 073°56'2 4.6
2018-Jan-19 10:30N 40°50' W 073°57'2 4.1
2018-Jan-19 09:59N 40°48' W 073°59'2 3.7
2018-Jan-19 09:30N 40°47' W 073°60'2 3.7
2018-Jan-19 09:00N 40°45' W 074°01'2 3.8
2018-Jan-19 08:30N 40°43' W 074°01'2 4.2
2018-Jan-19 08:00N 40°41' W 074°02'2 4.5
2018-Jan-19 07:30N 40°39' W 074°03'3 6.9
2018-Jan-19 07:00N 40°39' W 074°08'3 5.9
2018-Jan-19 06:30N 40°38' W 074°12'3 5.5
2018-Jan-19 06:00N 40°35' W 074°12'2 4.9
2018-Jan-19 05:30N 40°33' W 074°14'1 1.3
2018-Jan-19 04:48N 40°33' W 074°15'1 1.6
2018-Jan-19 04:29N 40°32' W 074°15'1 0.5
2018-Jan-19 01:57N 40°33' W 074°14'0 0.0
2018-Jan-18 18:33N 40°33' W 074°14'111.0
2018-Jan-18 18:30N 40°33' W 074°14'5 9.9
2018-Jan-18 18:00N 40°38' W 074°12'4 8.5
2018-Jan-18 17:30N 40°39' W 074°06'5 9.5
2018-Jan-18 17:00N 40°41' W 074°01'510.8
2018-Jan-18 16:30N 40°46' W 073°57'3 6.0
2018-Jan-18 15:57N 40°48' W 073°54'1 1.4
2018-Jan-18 15:30N 40°48' W 073°55'3 5.3
2018-Jan-18 15:00N 40°46' W 073°57'3 5.6
2018-Jan-18 14:30N 40°43' W 073°58'3 6.0
2018-Jan-18 14:01N 40°41' W 074°01'2 3.7
2018-Jan-18 13:30N 40°40' W 074°03'0 0.1
2018-Jan-18 13:00N 40°40' W 074°03'0 0.1
2018-Jan-18 12:30N 40°40' W 074°03'0 0.0
2018-Jan-18 12:00N 40°40' W 074°03'0 0.3
2018-Jan-18 11:30N 40°40' W 074°03'0 0.1
2018-Jan-18 11:00N 40°39' W 074°03'0 0.1
2018-Jan-18 10:30N 40°39' W 074°03'0 0.0
2018-Jan-18 10:00N 40°39' W 074°03'0 0.0
2018-Jan-18 09:30N 40°39' W 074°03'0 0.2
2018-Jan-18 09:00N 40°39' W 074°03'3 5.8
2018-Jan-18 08:30N 40°39' W 074°07'0 0.1
2018-Jan-18 08:00N 40°39' W 074°07'0 0.3
2018-Jan-18 07:30N 40°39' W 074°06'0 0.3
2018-Jan-18 06:59N 40°39' W 074°07'1 2.5
2018-Jan-18 06:30N 40°39' W 074°05'2 4.9
2018-Jan-18 06:00N 40°40' W 074°02'0 0.0
2018-Jan-18 05:30N 40°40' W 074°02'2 4.1
2018-Jan-18 05:01N 40°39' W 074°04'3 5.3
2018-Jan-18 04:30N 40°40' W 074°01'3 5.5
2018-Jan-18 04:00N 40°42' W 073°59'510.5
2018-Jan-18 03:30N 40°47' W 073°55'1 2.5
2018-Jan-18 02:59N 40°47' W 073°54'1 2.4
2018-Jan-18 02:30N 40°48' W 073°54'4 8.7
2018-Jan-18 02:00N 40°45' W 073°58'4 8.9
2018-Jan-18 01:30N 40°41' W 074°01'1 2.3
2018-Jan-18 01:00N 40°40' W 074°01'0 0.0
2018-Jan-17 23:59N 40°40' W 074°01'0 0.0
2018-Jan-17 23:58N 40°40' W 074°01'  
2018-Jan-12 14:59N 40°38' W 074°08'0 0.0
2018-Jan-12 14:30N 40°38' W 074°08'0 0.0
2018-Jan-12 13:58N 40°38' W 074°08'2 4.2
2018-Jan-12 13:30N 40°39' W 074°05'2 4.5
2018-Jan-12 13:00N 40°39' W 074°02'1 2.5
2018-Jan-12 12:30N 40°40' W 074°01'0 0.1
2018-Jan-12 12:00N 40°40' W 074°01'0 0.0
2018-Jan-12 11:30N 40°40' W 074°01'0 0.0
2018-Jan-12 11:00N 40°40' W 074°01'0 0.0
2018-Jan-12 10:30N 40°40' W 074°01'0 0.0
2018-Jan-12 10:00N 40°40' W 074°01'0 0.0
2018-Jan-12 09:30N 40°40' W 074°01'0 0.0
2018-Jan-12 08:59N 40°40' W 074°01'0 0.0
2018-Jan-12 08:30N 40°40' W 074°01'1 1.2
2018-Jan-12 08:00N 40°40' W 074°02'0 0.2
2018-Jan-12 07:30N 40°40' W 074°01'0 0.1
2018-Jan-12 07:01N 40°41' W 074°01'2 4.5
2018-Jan-12 06:30N 40°42' W 073°60'3 6.2
2018-Jan-12 06:00N 40°45' W 073°58'4 7.7
2018-Jan-12 05:30N 40°48' W 073°54'4 8.3
2018-Jan-12 04:58N 40°48' W 073°49'3 7.0
2018-Jan-12 04:30N 40°51' W 073°46'  
Track history (hours):
 
Tides and Currents Weather Stations Pressure Air Temp Water Temp Dewpoint Dewpoint Depression Visibility Wind Speed Wind Dir Waves Ship Positions

Jill Reinauer

Owner: REINAUER TRANSPORTATION CO.,LLC., STATEN ISLAND, NY. More information available from US FCC via Universal Licensing System and Coast Guard Vessel Documentation Center.

Last reported at 2018-Jan-21 06:58 UTC. Time now 2018-Jan-21 07:06 UTC.
Position N 40°35' W 074°12'.

Length 30 m; draft 4 m.

Type: . MMSI: 366727190.

Date/timePositionNaut miles runAvg speedWind from/ knotsBaromVisibWave heightAir tempDewpointWater temp
2018-Jan-21 06:58N 40°35' W 074°12'0 0.7
2018-Jan-21 06:24N 40°35' W 074°13'2 4.9
2018-Jan-21 05:58N 40°33' W 074°14'1 2.9
2018-Jan-21 05:30N 40°32' W 074°15'0 0.0
2018-Jan-21 05:00N 40°32' W 074°15'0 0.0
2018-Jan-21 04:29N 40°32' W 074°15'0 0.0
2018-Jan-21 04:00N 40°32' W 074°15'1 1.3
2018-Jan-21 03:10N 40°31' W 074°15'1 0.6
2018-Jan-21 01:37N 40°32' W 074°15'1 0.6
2018-Jan-20 23:04N 40°33' W 074°14'1 7.7
2018-Jan-20 22:59N 40°33' W 074°13'4 7.7
2018-Jan-20 22:29N 40°37' W 074°12'3 6.6
2018-Jan-20 22:00N 40°39' W 074°08'3 6.3
2018-Jan-20 21:30N 40°39' W 074°04'3 6.6
2018-Jan-20 21:00N 40°42' W 074°02'510.2
2018-Jan-20 20:30N 40°47' W 073°60'3 5.3
2018-Jan-20 20:01N 40°49' W 073°58'4 7.4
2018-Jan-20 19:30N 40°52' W 073°56'4 8.5
2018-Jan-20 19:00N 40°56' W 073°54'1 0.0
2018-Jan-19 12:00N 40°57' W 073°54'3 5.6
2018-Jan-19 11:30N 40°55' W 073°55'3 5.0
2018-Jan-19 11:00N 40°52' W 073°56'2 4.6
2018-Jan-19 10:30N 40°50' W 073°57'2 4.1
2018-Jan-19 09:59N 40°48' W 073°59'2 3.7
2018-Jan-19 09:30N 40°47' W 073°60'2 3.7
2018-Jan-19 09:00N 40°45' W 074°01'2 3.8
2018-Jan-19 08:30N 40°43' W 074°01'2 4.2
2018-Jan-19 08:00N 40°41' W 074°02'2 4.5
2018-Jan-19 07:30N 40°39' W 074°03'3 6.9
2018-Jan-19 07:00N 40°39' W 074°08'3 5.9
2018-Jan-19 06:30N 40°38' W 074°12'3 5.5
2018-Jan-19 06:00N 40°35' W 074°12'2 4.9
2018-Jan-19 05:30N 40°33' W 074°14'1 1.3
2018-Jan-19 04:48N 40°33' W 074°15'1 1.6
2018-Jan-19 04:29N 40°32' W 074°15'1 0.5
2018-Jan-19 01:57N 40°33' W 074°14'0 0.0
2018-Jan-18 18:33N 40°33' W 074°14'111.0
2018-Jan-18 18:30N 40°33' W 074°14'5 9.9
2018-Jan-18 18:00N 40°38' W 074°12'4 8.5
2018-Jan-18 17:30N 40°39' W 074°06'5 9.5
2018-Jan-18 17:00N 40°41' W 074°01'510.8
2018-Jan-18 16:30N 40°46' W 073°57'3 6.0
2018-Jan-18 15:57N 40°48' W 073°54'1 1.4
2018-Jan-18 15:30N 40°48' W 073°55'3 5.3
2018-Jan-18 15:00N 40°46' W 073°57'3 5.6
2018-Jan-18 14:30N 40°43' W 073°58'3 6.0
2018-Jan-18 14:01N 40°41' W 074°01'2 3.7
2018-Jan-18 13:30N 40°40' W 074°03'0 0.1
2018-Jan-18 13:00N 40°40' W 074°03'0 0.1
2018-Jan-18 12:30N 40°40' W 074°03'0 0.0
2018-Jan-18 12:00N 40°40' W 074°03'0 0.3
2018-Jan-18 11:30N 40°40' W 074°03'0 0.1
2018-Jan-18 11:00N 40°39' W 074°03'0 0.1
2018-Jan-18 10:30N 40°39' W 074°03'0 0.0
2018-Jan-18 10:00N 40°39' W 074°03'0 0.0
2018-Jan-18 09:30N 40°39' W 074°03'0 0.2
2018-Jan-18 09:00N 40°39' W 074°03'3 5.8
2018-Jan-18 08:30N 40°39' W 074°07'0 0.1
2018-Jan-18 08:00N 40°39' W 074°07'0 0.3
2018-Jan-18 07:30N 40°39' W 074°06'0 0.3
2018-Jan-18 06:59N 40°39' W 074°07'1 2.5
2018-Jan-18 06:30N 40°39' W 074°05'2 4.9
2018-Jan-18 06:00N 40°40' W 074°02'0 0.0
2018-Jan-18 05:30N 40°40' W 074°02'2 4.1
2018-Jan-18 05:01N 40°39' W 074°04'3 5.3
2018-Jan-18 04:30N 40°40' W 074°01'3 5.5
2018-Jan-18 04:00N 40°42' W 073°59'510.5
2018-Jan-18 03:30N 40°47' W 073°55'1 2.5
2018-Jan-18 02:59N 40°47' W 073°54'1 2.4
2018-Jan-18 02:30N 40°48' W 073°54'4 8.7
2018-Jan-18 02:00N 40°45' W 073°58'4 8.9
2018-Jan-18 01:30N 40°41' W 074°01'1 2.3
2018-Jan-18 01:00N 40°40' W 074°01'0 0.0
2018-Jan-17 23:59N 40°40' W 074°01'0 0.0
2018-Jan-17 23:58N 40°40' W 074°01'  
2018-Jan-12 14:59N 40°38' W 074°08'0 0.0
2018-Jan-12 14:30N 40°38' W 074°08'0 0.0
2018-Jan-12 13:58N 40°38' W 074°08'2 4.2
2018-Jan-12 13:30N 40°39' W 074°05'2 4.5
2018-Jan-12 13:00N 40°39' W 074°02'1 2.5
2018-Jan-12 12:30N 40°40' W 074°01'0 0.1
2018-Jan-12 12:00N 40°40' W 074°01'0 0.0
2018-Jan-12 11:30N 40°40' W 074°01'0 0.0
2018-Jan-12 11:00N 40°40' W 074°01'0 0.0
2018-Jan-12 10:30N 40°40' W 074°01'0 0.0
2018-Jan-12 10:00N 40°40' W 074°01'0 0.0
2018-Jan-12 09:30N 40°40' W 074°01'0 0.0
2018-Jan-12 08:59N 40°40' W 074°01'0 0.0
2018-Jan-12 08:30N 40°40' W 074°01'1 1.2
2018-Jan-12 08:00N 40°40' W 074°02'0 0.2
2018-Jan-12 07:30N 40°40' W 074°01'0 0.1
2018-Jan-12 07:01N 40°41' W 074°01'2 4.5
2018-Jan-12 06:30N 40°42' W 073°60'3 6.2
2018-Jan-12 06:00N 40°45' W 073°58'4 7.7
2018-Jan-12 05:30N 40°48' W 073°54'4 8.3
2018-Jan-12 04:58N 40°48' W 073°49'3 7.0
2018-Jan-12 04:30N 40°51' W 073°46'  

Dump ship's entire track history